Time;durP1;ratioP1;P1;durP2;ratioP2;P2;SDS_P1;SDS_P2;PMS_P1;PMS_P2;Temp;Humidity;BMP_temperature;BMP_pressure;BME280_temperature;BME280_humidity;BME280_pressure;Samples;Min_cycle;Max_cycle;Signal;HPM_P1;HPM_P2
2021/01/20 00:00:14;;;;;;;17.30;10.02;;;6.50;99.90;;;;;;5092853;28;20075;-65
2021/01/20 00:02:42;;;;;;;14.38;9.20;;;6.50;99.90;;;;;;5091291;28;20392;-66
2021/01/20 00:05:10;;;;;;;20.25;10.32;;;6.50;99.90;;;;;;5092697;28;20079;-66
2021/01/20 00:07:42;;;;;;;16.95;9.82;;;6.40;99.90;;;;;;5091739;28;20048;-66
2021/01/20 00:10:15;;;;;;;15.07;8.57;;;6.40;99.90;;;;;;5092285;28;20090;-66
2021/01/20 00:12:46;;;;;;;19.20;9.85;;;6.40;99.90;;;;;;5092413;28;20052;-65
2021/01/20 00:15:21;;;;;;;16.15;9.57;;;6.40;99.90;;;;;;5075236;28;20056;-64
2021/01/20 00:17:50;;;;;;;18.27;11.52;;;6.40;99.90;;;;;;5091631;28;20056;-66
2021/01/20 00:20:22;;;;;;;20.63;11.93;;;6.30;99.90;;;;;;5092007;28;20052;-66
2021/01/20 00:23:00;;;;;;;20.02;9.90;;;6.30;99.90;;;;;;5091378;28;20393;-66
2021/01/20 00:25:27;;;;;;;19.63;9.35;;;6.40;99.90;;;;;;5092908;28;20459;-66
2021/01/20 00:27:57;;;;;;;16.88;8.27;;;6.40;99.90;;;;;;5091736;28;20044;-67
2021/01/20 00:30:29;;;;;;;22.63;10.02;;;6.40;99.90;;;;;;5092573;28;20055;-65
2021/01/20 00:32:59;;;;;;;14.25;9.25;;;6.40;99.90;;;;;;5094302;28;20476;-66
2021/01/20 00:35:29;;;;;;;21.60;9.23;;;6.50;99.90;;;;;;5096188;28;20095;-66
2021/01/20 00:38:06;;;;;;;21.80;11.35;;;6.50;99.90;;;;;;5096760;28;20147;-65
2021/01/20 00:40:36;;;;;;;18.10;11.20;;;6.50;99.90;;;;;;5094791;28;20093;-65
2021/01/20 00:43:03;;;;;;;18.35;9.80;;;6.50;99.90;;;;;;5095849;28;20044;-65
2021/01/20 00:45:32;;;;;;;22.67;10.75;;;6.50;99.90;;;;;;5096103;28;20055;-66
2021/01/20 00:48:02;;;;;;;18.83;9.68;;;6.60;99.90;;;;;;5095537;28;20040;-66
2021/01/20 00:50:30;;;;;;;19.85;9.95;;;6.60;99.90;;;;;;5095653;28;20044;-66
2021/01/20 00:53:00;;;;;;;18.10;11.43;;;6.60;99.90;;;;;;5094456;28;20048;-66
2021/01/20 00:55:28;;;;;;;19.23;9.55;;;6.60;99.90;;;;;;5095835;28;20054;-66
2021/01/20 00:57:58;;;;;;;24.13;11.38;;;6.60;99.90;;;;;;5095067;28;20121;-65
2021/01/20 01:00:26;;;;;;;19.80;9.98;;;6.50;99.90;;;;;;5077629;28;20072;-66
2021/01/20 01:03:01;;;;;;;22.90;9.30;;;6.50;99.90;;;;;;5094412;28;20114;-65
2021/01/20 01:05:31;;;;;;;19.00;10.15;;;6.50;99.90;;;;;;5078215;28;20044;-66
2021/01/20 01:08:06;;;;;;;20.25;10.95;;;6.40;99.90;;;;;;5094751;28;20109;-66
2021/01/20 01:10:45;;;;;;;16.90;9.32;;;6.50;99.90;;;;;;5075034;28;20040;-65
2021/01/20 01:13:55;;;;;;;18.83;10.27;;;6.50;99.90;;;;;;5048216;28;20094;-66
2021/01/20 01:16:45;;;;;;;19.13;9.75;;;6.50;99.90;;;;;;5074278;28;20047;-64
2021/01/20 01:19:26;;;;;;;14.45;9.23;;;6.60;99.90;;;;;;5083356;28;20395;-65
2021/01/20 01:21:53;;;;;;;21.30;9.90;;;6.60;99.90;;;;;;5094225;28;20094;-65
2021/01/20 01:24:23;;;;;;;16.25;7.63;;;6.60;99.90;;;;;;5094117;28;20134;-66
2021/01/20 01:26:57;;;;;;;13.80;8.00;;;6.60;99.90;;;;;;5096062;28;20044;-65
2021/01/20 01:29:25;;;;;;;15.00;8.02;;;6.60;99.90;;;;;;5077248;28;20135;-65
2021/01/20 01:32:00;;;;;;;11.45;7.75;;;6.60;99.90;;;;;;5078561;28;20134;-65
2021/01/20 01:34:34;;;;;;;14.75;7.90;;;6.60;99.90;;;;;;5095075;28;20040;-65
2021/01/20 01:37:09;;;;;;;15.70;7.47;;;6.60;99.90;;;;;;5095384;28;20507;-65
2021/01/20 01:40:03;;;;;;;11.13;6.38;;;6.60;99.90;;;;;;5093781;28;20052;-65
2021/01/20 01:42:33;;;;;;;12.85;7.68;;;6.60;99.90;;;;;;5076136;28;20044;-66
2021/01/20 01:45:04;;;;;;;15.23;6.47;;;6.60;99.90;;;;;;5077448;28;20135;-65
2021/01/20 01:47:32;;;;;;;12.68;6.45;;;6.60;99.90;;;;;;5095050;28;20060;-65
2021/01/20 01:50:05;;;;;;;9.57;6.03;;;6.60;99.90;;;;;;5093531;28;20052;-65
2021/01/20 01:52:37;;;;;;;13.32;6.57;;;6.60;99.90;;;;;;5093108;28;20479;-66
2021/01/20 01:55:40;;;;;;;17.47;6.00;;;6.60;99.90;;;;;;5113083;28;20055;-66
2021/01/20 01:58:28;;;;;;;14.55;6.50;;;6.70;99.90;;;;;;5095077;28;20329;-65
2021/01/20 02:01:03;;;;;;;11.70;6.70;;;6.70;99.90;;;;;;5073107;28;20079;-66
2021/01/20 02:03:42;;;;;;;12.07;7.35;;;6.70;99.90;;;;;;5072947;28;20044;-65
2021/01/20 02:06:21;;;;;;;10.75;5.57;;;6.80;99.90;;;;;;5073299;28;20078;-65
2021/01/20 02:09:01;;;;;;;14.25;6.97;;;6.80;99.90;;;;;;5076948;28;20526;-65
2021/01/20 02:12:24;;;;;;;12.18;6.95;;;6.80;99.90;;;;;;5093522;28;20128;-65
2021/01/20 02:15:30;;;;;;;14.75;6.80;;;6.80;99.90;;;;;;5070067;28;20050;-64
2021/01/20 02:18:10;;;;;;;9.35;5.63;;;6.80;99.90;;;;;;5093213;28;20052;-66
2021/01/20 02:21:50;;;;;;;9.20;5.85;;;6.80;99.90;;;;;;5092724;28;20134;-65
2021/01/20 02:24:58;;;;;;;12.45;5.15;;;6.80;99.90;;;;;;5092912;28;20521;-66
2021/01/20 02:28:13;;;;;;;11.38;5.57;;;6.80;99.90;;;;;;5093101;28;20051;-65
2021/01/20 02:31:03;;;;;;;14.07;6.97;;;6.80;99.90;;;;;;5093409;28;20423;-66
2021/01/20 02:33:47;;;;;;;12.65;7.00;;;6.80;99.90;;;;;;5092684;28;20139;-65
2021/01/20 02:36:27;;;;;;;14.07;6.70;;;6.80;99.90;;;;;;5092933;28;20390;-65
2021/01/20 02:39:17;;;;;;;12.60;6.95;;;6.70;99.90;;;;;;5091915;28;20051;-65
2021/01/20 02:41:48;;;;;;;12.25;7.05;;;6.70;99.90;;;;;;5092334;28;20411;-66
2021/01/20 02:44:26;;;;;;;;;;;6.80;99.90;;;;;;5089470;28;20098;-65
2021/01/20 02:47:17;;;;;;;11.70;5.60;;;6.70;99.90;;;;;;5073020;28;19927;-65
2021/01/20 02:49:59;;;;;;;11.27;5.97;;;6.70;99.90;;;;;;5066224;28;20052;-66
2021/01/20 02:52:48;;;;;;;12.95;6.38;;;6.70;99.90;;;;;;5075632;28;20455;-64
2021/01/20 02:56:01;;;;;;;18.00;7.47;;;6.70;99.90;;;;;;5085281;28;20072;-66
2021/01/20 02:59:07;;;;;;;12.00;6.57;;;6.70;99.90;;;;;;5093667;28;20048;-64
2021/01/20 03:02:09;;;;;;;14.85;7.47;;;6.80;99.90;;;;;;5081495;28;20056;-65
2021/01/20 03:04:41;;;;;;;26.63;6.78;;;6.70;99.90;;;;;;5093483;28;20048;-66
2021/01/20 03:07:16;;;;;;;15.93;7.53;;;6.80;99.90;;;;;;5093591;28;20043;-65
2021/01/20 03:09:44;;;;;;;13.35;5.85;;;6.80;99.90;;;;;;5091944;28;20097;-65
2021/01/20 03:12:16;;;;;;;12.63;7.57;;;6.70;99.90;;;;;;5093723;28;20495;-65
2021/01/20 03:14:46;;;;;;;11.63;7.53;;;6.70;99.90;;;;;;5091810;28;20058;-67
2021/01/20 03:17:13;;;;;;;13.38;6.80;;;6.60;99.90;;;;;;5093280;28;20058;-65
2021/01/20 03:19:41;;;;;;;14.38;8.65;;;6.60;99.90;;;;;;5092014;28;20039;-66
2021/01/20 03:22:08;;;;;;;9.93;6.70;;;6.60;99.90;;;;;;5093262;28;20055;-65
2021/01/20 03:24:35;;;;;;;13.77;7.88;;;6.50;99.90;;;;;;5092010;28;20071;-64
2021/01/20 03:27:03;;;;;;;13.63;6.60;;;6.50;99.90;;;;;;5092222;28;20461;-64
2021/01/20 03:29:31;;;;;;;13.52;7.78;;;6.50;99.90;;;;;;5092877;28;20086;-65
2021/01/20 03:32:01;;;;;;;12.50;6.20;;;6.50;99.90;;;;;;5093168;28;20056;-65
2021/01/20 03:34:35;;;;;;;10.45;5.50;;;6.60;99.90;;;;;;5092624;28;20078;-65
2021/01/20 03:37:07;;;;;;;10.93;4.88;;;6.60;99.90;;;;;;5093459;28;20059;-65
2021/01/20 03:39:37;;;;;;;13.77;5.82;;;6.60;99.90;;;;;;5091455;28;20083;-65
2021/01/20 03:42:05;;;;;;;10.52;6.18;;;6.60;99.90;;;;;;5092962;28;20052;-66
2021/01/20 03:44:38;;;;;;;10.93;5.60;;;6.60;99.90;;;;;;5091651;28;20067;-65
2021/01/20 03:47:05;;;;;;;12.65;6.45;;;6.50;99.90;;;;;;5091812;28;20044;-65
2021/01/20 03:49:33;;;;;;;17.10;6.95;;;6.50;99.90;;;;;;5092945;28;20052;-65
2021/01/20 03:52:00;;;;;;;15.13;6.63;;;6.50;99.90;;;;;;5092867;28;20056;-64
2021/01/20 03:54:30;;;;;;;13.68;7.20;;;6.50;99.90;;;;;;5092552;28;20048;-65
2021/01/20 03:56:58;;;;;;;12.93;5.90;;;6.40;99.90;;;;;;5091930;28;20093;-64
2021/01/20 03:59:25;;;;;;;17.10;6.90;;;6.50;99.90;;;;;;5092885;28;20048;-65
2021/01/20 04:01:52;;;;;;;14.43;6.95;;;6.50;99.90;;;;;;5092787;28;20209;-65
2021/01/20 04:04:23;;;;;;;10.38;6.70;;;6.40;99.90;;;;;;5091572;28;20105;-65
2021/01/20 04:06:57;;;;;;;13.40;7.50;;;6.40;99.90;;;;;;5096017;28;20139;-65
2021/01/20 04:09:27;;;;;;;13.40;7.68;;;6.40;99.90;;;;;;5095388;28;20044;-62
2021/01/20 04:11:57;;;;;;;12.35;8.10;;;6.40;99.90;;;;;;5079210;28;20101;-66
2021/01/20 04:14:27;;;;;;;12.90;7.53;;;6.40;99.90;;;;;;5078816;28;20044;-65
2021/01/20 04:16:55;;;;;;;18.20;7.35;;;6.30;99.90;;;;;;5096802;28;20478;-65
2021/01/20 04:19:24;;;;;;;14.02;8.20;;;6.30;99.90;;;;;;5095618;28;20051;-64
2021/01/20 04:21:54;;;;;;;12.75;7.60;;;6.30;99.90;;;;;;5096605;28;20040;-65
2021/01/20 04:24:24;;;;;;;16.42;8.23;;;6.30;99.90;;;;;;5096211;28;20063;-65
2021/01/20 04:26:51;;;;;;;14.60;8.32;;;6.20;99.90;;;;;;5096789;28;20140;-66
2021/01/20 04:29:24;;;;;;;10.93;7.57;;;6.10;99.90;;;;;;5095268;28;20060;-66
2021/01/20 04:31:54;;;;;;;12.05;6.85;;;6.20;99.90;;;;;;5077799;28;20118;-66
2021/01/20 04:34:25;;;;;;;11.27;6.90;;;6.10;99.90;;;;;;5095970;28;20051;-65
2021/01/20 04:36:55;;;;;;;12.65;7.30;;;6.10;99.90;;;;;;5096476;28;20131;-65
2021/01/20 04:39:26;;;;;;;13.02;7.28;;;6.20;99.90;;;;;;5095167;28;20093;-65
2021/01/20 04:41:53;;;;;;;12.73;7.82;;;6.20;99.90;;;;;;5094743;28;20129;-65
2021/01/20 04:44:21;;;;;;;14.93;8.82;;;6.10;99.90;;;;;;5094206;28;20060;-65
2021/01/20 04:46:57;;;;;;;19.10;8.43;;;6.20;99.90;;;;;;5078952;28;20075;-64
2021/01/20 04:49:26;;;;;;;18.52;9.52;;;6.10;99.90;;;;;;5095131;28;20388;-64
2021/01/20 04:51:56;;;;;;;17.73;9.55;;;6.10;99.90;;;;;;5095623;28;20059;-66
2021/01/20 04:54:24;;;;;;;15.00;8.70;;;6.10;99.90;;;;;;5095604;28;20052;-65
2021/01/20 04:56:56;;;;;;;18.50;9.65;;;6.10;99.90;;;;;;5095684;28;20044;-66
2021/01/20 04:59:30;;;;;;;16.30;8.95;;;6.10;99.90;;;;;;5095977;28;20044;-65
2021/01/20 05:01:58;;;;;;;14.43;8.73;;;6.20;99.90;;;;;;5095837;28;20522;-65
2021/01/20 05:04:26;;;;;;;16.67;9.88;;;6.20;99.90;;;;;;5094441;28;20052;-66
2021/01/20 05:06:54;;;;;;;19.92;10.32;;;6.20;99.90;;;;;;5095968;28;20528;-64
2021/01/20 05:09:23;;;;;;;20.33;10.10;;;6.20;99.90;;;;;;5095738;28;20558;-64
2021/01/20 05:11:54;;;;;;;18.40;9.55;;;6.20;99.90;;;;;;5094526;28;20388;-65
2021/01/20 05:14:24;;;;;;;18.30;9.15;;;6.20;99.90;;;;;;5094390;28;20173;-65
2021/01/20 05:17:08;;;;;;;15.93;8.85;;;6.20;99.90;;;;;;5095061;28;20052;-65
2021/01/20 05:19:38;;;;;;;15.40;8.02;;;6.10;99.90;;;;;;5093984;28;20079;-65
2021/01/20 05:22:11;;;;;;;15.40;9.48;;;6.10;99.90;;;;;;5095134;28;20047;-65
2021/01/20 05:24:43;;;;;;;16.50;9.50;;;6.20;99.90;;;;;;5093658;28;20051;-64
2021/01/20 05:27:13;;;;;;;19.70;9.38;;;6.20;99.90;;;;;;5095072;28;20052;-65
2021/01/20 05:30:05;;;;;;;13.77;7.22;;;6.20;99.90;;;;;;5092783;28;20067;-65
2021/01/20 05:32:36;;;;;;;13.05;7.65;;;6.20;99.90;;;;;;5057556;28;20084;-66
2021/01/20 05:35:07;;;;;;;15.95;8.13;;;6.20;99.90;;;;;;5074857;28;20052;-66
2021/01/20 05:37:48;;;;;;;15.63;8.20;;;6.30;99.90;;;;;;5074813;28;20048;-65
2021/01/20 05:40:19;;;;;;;16.75;8.15;;;6.30;99.90;;;;;;5079270;28;20079;-66
2021/01/20 05:42:55;;;;;;;14.13;7.90;;;6.30;99.90;;;;;;5076872;28;20579;-65
2021/01/20 05:45:24;;;;;;;12.17;7.30;;;6.30;99.90;;;;;;5095079;28;20134;-65
2021/01/20 05:48:12;;;;;;;13.95;7.70;;;6.30;99.90;;;;;;5094957;28;20059;-65
2021/01/20 05:50:56;;;;;;;11.43;6.97;;;6.40;99.90;;;;;;5073582;28;20507;-63
2021/01/20 05:53:26;;;;;;;10.60;7.72;;;6.40;99.90;;;;;;5073097;28;20097;-65
2021/01/20 05:56:04;;;;;;;12.55;7.18;;;6.40;99.90;;;;;;5073366;28;20098;-65
2021/01/20 05:58:39;;;;;;;12.50;7.75;;;6.40;99.90;;;;;;5059960;28;20105;-66
2021/01/20 06:01:11;;;;;;;11.43;7.78;;;6.50;99.90;;;;;;5093381;28;20055;-65
2021/01/20 06:03:43;;;;;;;12.50;7.10;;;6.40;99.90;;;;;;5093227;28;20456;-66
2021/01/20 06:06:11;;;;;;;13.10;8.25;;;6.50;99.90;;;;;;5076839;28;20047;-66
2021/01/20 06:08:43;;;;;;;12.32;8.05;;;6.50;99.90;;;;;;5093120;28;20033;-66
2021/01/20 06:11:15;;;;;;;13.82;7.75;;;6.60;99.90;;;;;;5093567;28;20040;-66
2021/01/20 06:13:43;;;;;;;19.20;8.88;;;6.60;99.90;;;;;;5093881;28;20392;-65
2021/01/20 06:16:14;;;;;;;14.25;8.05;;;6.60;99.90;;;;;;5076906;28;20051;-65
2021/01/20 06:18:55;;;;;;;12.70;6.90;;;6.70;99.90;;;;;;5094022;28;20048;-65
2021/01/20 06:21:24;;;;;;;14.52;8.50;;;6.70;99.90;;;;;;5093192;28;20056;-64
2021/01/20 06:24:11;;;;;;;12.02;6.68;;;6.80;99.90;;;;;;5093768;28;20093;-65
2021/01/20 06:26:55;;;;;;;16.08;5.72;;;6.90;99.90;;;;;;5092284;28;20055;-64
2021/01/20 06:29:28;;;;;;;9.32;5.25;;;7.00;99.90;;;;;;5090653;28;20051;-64
2021/01/20 06:31:58;;;;;;;13.75;5.40;;;7.10;99.90;;;;;;5094772;28;20157;-65
2021/01/20 06:34:28;;;;;;;10.20;5.38;;;7.20;99.90;;;;;;5094284;28;20036;-65
2021/01/20 06:36:55;;;;;;;8.70;5.05;;;7.20;99.90;;;;;;5093631;28;20044;-66
2021/01/20 06:39:29;;;;;;;12.20;5.80;;;7.30;99.90;;;;;;5092339;28;20075;-66
2021/01/20 06:42:00;;;;;;;7.22;5.05;;;7.20;99.90;;;;;;5094178;28;20040;-65
2021/01/20 06:44:34;;;;;;;11.23;4.75;;;7.40;99.90;;;;;;5093762;28;20059;-65
2021/01/20 06:47:05;;;;;;;10.65;4.50;;;7.40;99.90;;;;;;5076871;28;20052;-66
2021/01/20 06:49:33;;;;;;;9.15;5.38;;;7.40;99.90;;;;;;5080899;28;20048;-65
2021/01/20 06:52:11;;;;;;;9.73;4.38;;;7.50;99.90;;;;;;5091458;28;20048;-65
2021/01/20 06:54:46;;;;;;;9.60;4.30;;;7.50;99.90;;;;;;5091593;28;20066;-63
2021/01/20 06:57:25;;;;;;;8.05;3.75;;;7.60;99.90;;;;;;5092414;28;20578;-64
2021/01/20 07:00:21;;;;;;;7.97;3.80;;;7.70;99.90;;;;;;5075433;28;20146;-64
2021/01/20 07:03:03;;;;;;;9.10;5.38;;;7.70;99.90;;;;;;5093278;28;20055;-62
2021/01/20 07:05:38;;;;;;;10.82;5.03;;;7.80;99.90;;;;;;5093376;28;20075;-60
2021/01/20 07:08:07;;;;;;;7.13;3.90;;;7.80;99.90;;;;;;5093158;28;20834;-64
2021/01/20 07:11:01;;;;;;;9.38;4.63;;;7.90;99.90;;;;;;5093442;28;20131;-64
2021/01/20 07:13:32;;;;;;;11.70;5.05;;;7.90;99.90;;;;;;5091646;28;20131;-62
2021/01/20 07:16:00;;;;;;;17.05;6.72;;;8.00;99.90;;;;;;5092942;28;20036;-65
2021/01/20 07:18:28;;;;;;;19.00;10.38;;;8.10;99.90;;;;;;5092373;28;20055;-65
2021/01/20 07:20:55;;;;;;;20.05;12.90;;;8.20;99.90;;;;;;5093378;28;20051;-63
2021/01/20 07:23:23;;;;;;;15.00;8.57;;;8.30;99.90;;;;;;5093077;28;20511;-66
2021/01/20 07:25:52;;;;;;;12.63;7.28;;;8.50;99.90;;;;;;5092980;28;20160;-63
2021/01/20 07:28:21;;;;;;;12.52;4.85;;;8.50;99.90;;;;;;5091257;28;20051;-65
2021/01/20 07:30:49;;;;;;;14.13;4.90;;;8.60;99.90;;;;;;5093194;28;20075;-66
2021/01/20 07:33:22;;;;;;;10.82;4.68;;;8.70;99.90;;;;;;5092675;28;20048;-65
2021/01/20 07:35:50;;;;;;;10.70;5.68;;;8.70;99.90;;;;;;5091321;28;20032;-65
2021/01/20 07:38:18;;;;;;;10.48;5.45;;;8.80;99.90;;;;;;5075373;28;20048;-65
2021/01/20 07:40:45;;;;;;;8.95;3.97;;;8.80;99.90;;;;;;5091729;28;20040;-64
2021/01/20 07:43:24;;;;;;;8.73;3.85;;;8.90;99.90;;;;;;5093388;28;20044;-65
2021/01/20 07:45:54;;;;;;;15.90;7.68;;;9.00;99.90;;;;;;5093014;28;20384;-66
2021/01/20 07:48:29;;;;;;;58.03;29.40;;;9.30;99.90;;;;;;5091781;28;20052;-65
2021/01/20 07:50:57;;;;;;;27.90;15.60;;;9.50;99.90;;;;;;5091831;28;20059;-64
2021/01/20 07:53:25;;;;;;;18.42;7.88;;;9.80;99.90;;;;;;5091068;28;20142;-65
2021/01/20 07:55:55;;;;;;;15.90;5.82;;;10.20;99.90;;;;;;5092486;28;20089;-62
2021/01/20 07:58:26;;;;;;;7.50;3.70;;;10.50;99.90;;;;;;5092946;28;20055;-63
2021/01/20 08:00:56;;;;;;;18.42;2.95;;;10.80;99.90;;;;;;5092853;28;20450;-66
2021/01/20 08:03:39;;;;;;;9.23;3.33;;;10.90;99.90;;;;;;5091496;28;20044;-62
2021/01/20 08:06:13;;;;;;;5.25;3.35;;;11.10;99.90;;;;;;5077297;28;20047;-65
2021/01/20 08:08:57;;;;;;;5.70;2.72;;;11.20;99.90;;;;;;5075212;28;20052;-65
2021/01/20 08:11:28;;;;;;;9.13;5.00;;;11.30;99.90;;;;;;5092857;28;20131;-65
2021/01/20 08:14:00;;;;;;;6.40;3.58;;;11.40;99.90;;;;;;5092187;28;20056;-66
2021/01/20 08:16:35;;;;;;;5.05;3.42;;;11.50;99.90;;;;;;5091333;28;20433;-62
2021/01/20 08:19:13;;;;;;;6.35;3.17;;;11.60;99.90;;;;;;5092649;28;20062;-65
2021/01/20 08:21:44;;;;;;;5.93;2.10;;;11.80;99.90;;;;;;5091120;28;20483;-65
2021/01/20 08:24:23;;;;;;;6.47;3.03;;;11.90;99.90;;;;;;5091024;28;20097;-65
2021/01/20 08:26:59;;;;;;;4.40;2.30;;;12.00;99.90;;;;;;5091941;28;20055;-64
2021/01/20 08:29:31;;;;;;;8.20;3.40;;;12.10;99.90;;;;;;5091813;28;20052;-65
2021/01/20 08:32:12;;;;;;;11.30;5.82;;;12.20;99.90;;;;;;5092436;28;20503;-65
2021/01/20 08:34:47;;;;;;;6.70;3.63;;;12.40;99.90;;;;;;5090892;28;20048;-65
2021/01/20 08:37:39;;;;;;;7.90;2.88;;;12.50;99.90;;;;;;5092110;28;20036;-66
2021/01/20 08:40:13;;;;;;;4.78;2.17;;;12.70;99.90;;;;;;5090237;28;20056;-65
2021/01/20 08:42:44;;;;;;;4.47;1.88;;;12.70;99.90;;;;;;5091346;28;20055;-64
2021/01/20 08:45:20;;;;;;;2.45;1.00;;;12.80;99.90;;;;;;5092339;28;20051;-64
2021/01/20 08:47:49;;;;;;;2.40;1.23;;;12.70;99.90;;;;;;5092180;28;20508;-65
2021/01/20 08:50:26;;;;;;;2.88;1.23;;;12.80;99.90;;;;;;5091092;28;20098;-62
2021/01/20 08:53:00;;;;;;;2.50;1.10;;;12.80;99.90;;;;;;5093306;28;20047;-65
2021/01/20 08:55:56;;;;;;;3.95;0.90;;;12.90;99.90;;;;;;5094850;28;20059;-66
2021/01/20 08:58:30;;;;;;;4.70;1.02;;;13.00;99.90;;;;;;5094048;28;20052;-65
2021/01/20 09:01:29;;;;;;;3.28;0.70;;;13.00;99.90;;;;;;5095683;28;20036;-65
2021/01/20 09:04:02;;;;;;;2.80;1.40;;;13.20;99.90;;;;;;5080404;28;20153;-66
2021/01/20 09:06:32;;;;;;;4.95;1.15;;;13.30;99.90;;;;;;5088939;28;20131;-65
2021/01/20 09:09:03;;;;;;;2.22;0.88;;;13.30;99.90;;;;;;5074123;28;20041;-66
2021/01/20 09:11:32;;;;;;;1.60;0.77;;;13.40;99.90;;;;;;5077035;28;20056;-65
2021/01/20 09:13:59;;;;;;;2.38;0.88;;;13.40;99.90;;;;;;5075211;28;20373;-64
2021/01/20 09:16:34;;;;;;;5.50;1.42;;;13.50;99.90;;;;;;5094113;28;20522;-66
2021/01/20 09:19:02;;;;;;;3.90;1.48;;;13.50;99.90;;;;;;5095656;28;20392;-65
2021/01/20 09:21:29;;;;;;;3.00;1.70;;;13.60;99.90;;;;;;5094429;28;20061;-65
2021/01/20 09:24:00;;;;;;;8.18;1.92;;;13.60;99.90;;;;;;5095213;28;20047;-66
2021/01/20 09:26:27;;;;;;;5.00;1.70;;;13.70;99.90;;;;;;5095553;28;20089;-66
2021/01/20 09:28:54;;;;;;;5.30;1.38;;;13.70;99.90;;;;;;5093104;28;20110;-66
2021/01/20 09:31:22;;;;;;;4.35;1.80;;;13.80;99.90;;;;;;5095545;28;20101;-66
2021/01/20 09:33:50;;;;;;;2.70;1.00;;;13.80;99.90;;;;;;5093529;28;20044;-65
2021/01/20 09:36:17;;;;;;;5.82;2.97;;;13.90;99.90;;;;;;5095185;28;20052;-66
2021/01/20 09:38:44;;;;;;;4.35;1.52;;;14.10;99.90;;;;;;5093478;28;20060;-64
2021/01/20 09:41:12;;;;;;;4.05;2.08;;;14.20;99.90;;;;;;5094248;28;20051;-66
2021/01/20 09:43:39;;;;;;;8.40;3.95;;;14.10;99.90;;;;;;5094680;28;20059;-65
2021/01/20 09:46:07;;;;;;;94.80;53.13;;;14.20;99.80;;;;;;5095036;28;20415;-65
2021/01/20 09:48:34;;;;;;;35.15;19.98;;;14.30;99.50;;;;;;5094653;28;20052;-65
2021/01/20 09:51:02;;;;;;;9.60;4.65;;;14.20;99.20;;;;;;5094937;28;20044;-65
2021/01/20 09:53:29;;;;;;;6.47;3.25;;;14.20;98.70;;;;;;5094710;28;20499;-64
2021/01/20 09:55:58;;;;;;;3.45;2.17;;;14.20;98.50;;;;;;5094711;28;20135;-65
2021/01/20 09:58:25;;;;;;;3.65;1.50;;;14.30;98.00;;;;;;5093650;28;20044;-65
2021/01/20 10:00:58;;;;;;;10.38;2.63;;;14.40;97.80;;;;;;5076990;28;20048;-66
2021/01/20 10:03:26;;;;;;;7.45;2.08;;;14.60;97.80;;;;;;5094153;28;20048;-65
2021/01/20 10:05:53;;;;;;;1.60;0.50;;;14.50;97.50;;;;;;5092999;28;20056;-64
2021/01/20 10:08:26;;;;;;;2.65;0.70;;;14.50;97.30;;;;;;5094464;28;20076;-65
2021/01/20 10:10:56;;;;;;;3.10;1.40;;;14.50;96.90;;;;;;5094074;28;20446;-63
2021/01/20 10:13:24;;;;;;;4.28;1.65;;;14.60;96.90;;;;;;5093988;28;20052;-64
2021/01/20 10:15:52;;;;;;;2.17;1.33;;;14.60;96.60;;;;;;5094109;28;20040;-65
2021/01/20 10:18:20;;;;;;;13.32;6.65;;;14.70;96.30;;;;;;5094502;28;20051;-64
2021/01/20 10:20:50;;;;;;;7.90;3.53;;;14.70;96.20;;;;;;5093318;28;20040;-66
2021/01/20 10:23:17;;;;;;;5.45;2.28;;;14.80;96.10;;;;;;5094291;28;20051;-65
2021/01/20 10:25:46;;;;;;;5.50;2.78;;;14.90;95.90;;;;;;5094272;28;20047;-65
2021/01/20 10:28:14;;;;;;;5.13;2.25;;;14.90;95.90;;;;;;5093670;28;20082;-64
2021/01/20 10:30:41;;;;;;;6.05;2.70;;;15.00;95.90;;;;;;5093543;28;20052;-67
2021/01/20 10:33:10;;;;;;;9.43;3.72;;;15.00;95.80;;;;;;5093745;28;20051;-65
2021/01/20 10:35:37;;;;;;;6.65;2.65;;;14.90;95.70;;;;;;5094068;28;20079;-64
2021/01/20 10:38:05;;;;;;;3.47;1.75;;;14.90;95.50;;;;;;5092957;28;20127;-65
2021/01/20 10:40:33;;;;;;;5.72;2.10;;;15.00;95.40;;;;;;5093819;28;20411;-66
2021/01/20 10:43:02;;;;;;;5.18;1.60;;;15.00;95.20;;;;;;5093398;28;20050;-65
2021/01/20 10:45:30;;;;;;;2.53;0.98;;;15.00;95.20;;;;;;5092937;28;20048;-64
2021/01/20 10:48:09;;;;;;;11.15;2.15;;;14.80;95.10;;;;;;5094290;28;20052;-64
2021/01/20 10:50:36;;;;;;;4.22;1.77;;;14.70;95.30;;;;;;5093966;28;20410;-66
2021/01/20 10:53:03;;;;;;;3.63;2.00;;;14.50;95.40;;;;;;5091910;28;20059;-66
2021/01/20 10:55:31;;;;;;;2.63;1.58;;;14.80;95.30;;;;;;5092598;28;20054;-66
2021/01/20 10:58:05;;;;;;;2.85;0.88;;;14.90;95.00;;;;;;5076350;28;20047;-66
2021/01/20 11:00:32;;;;;;;4.32;1.98;;;14.80;94.90;;;;;;5092527;28;20044;-66
2021/01/20 11:03:00;;;;;;;3.20;1.40;;;15.00;94.80;;;;;;5092897;28;20051;-66
2021/01/20 11:05:28;;;;;;;2.40;0.73;;;14.90;94.90;;;;;;5092261;28;20052;-64
2021/01/20 11:07:57;;;;;;;5.78;3.67;;;14.90;94.80;;;;;;5092512;28;20492;-65
2021/01/20 11:10:24;;;;;;;5.93;3.22;;;14.80;95.10;;;;;;5093313;28;20052;-66
2021/01/20 11:12:51;;;;;;;4.78;2.70;;;14.70;95.00;;;;;;5093185;28;20040;-64
2021/01/20 11:15:19;;;;;;;4.00;2.17;;;14.60;95.00;;;;;;5092692;28;20044;-67
2021/01/20 11:17:49;;;;;;;7.93;3.25;;;14.50;95.30;;;;;;5093331;28;20078;-64
2021/01/20 11:20:18;;;;;;;5.47;2.85;;;14.60;95.50;;;;;;5093279;28;20068;-66
2021/01/20 11:22:46;;;;;;;4.85;2.33;;;14.60;95.30;;;;;;5074871;28;20492;-65
2021/01/20 11:25:14;;;;;;;3.05;1.70;;;14.70;95.10;;;;;;5092317;28;20523;-63
2021/01/20 11:27:41;;;;;;;2.45;1.42;;;14.70;95.10;;;;;;5092305;28;20071;-65
2021/01/20 11:30:09;;;;;;;4.95;1.30;;;14.70;95.30;;;;;;5091884;28;20044;-65
2021/01/20 11:32:38;;;;;;;2.42;1.27;;;14.60;95.10;;;;;;5093043;28;20055;-64
2021/01/20 11:35:06;;;;;;;4.80;1.38;;;14.60;95.20;;;;;;5093172;28;20043;-65
2021/01/20 11:37:34;;;;;;;5.40;2.72;;;14.50;95.50;;;;;;5093137;28;20048;-65
2021/01/20 11:40:03;;;;;;;3.10;1.40;;;14.50;95.80;;;;;;5091508;28;20076;-64
2021/01/20 11:42:31;;;;;;;7.00;3.03;;;14.60;95.60;;;;;;5093122;28;20564;-65
2021/01/20 11:44:59;;;;;;;5.32;2.72;;;14.70;95.70;;;;;;5093288;28;20052;-63
2021/01/20 11:47:28;;;;;;;4.88;2.80;;;14.60;95.90;;;;;;5091864;28;20082;-66
2021/01/20 11:49:55;;;;;;;6.72;3.05;;;14.60;96.00;;;;;;5091420;28;20055;-65
2021/01/20 11:52:22;;;;;;;9.57;3.25;;;14.60;96.10;;;;;;5091836;28;20048;-63
2021/01/20 11:54:52;;;;;;;6.05;3.70;;;14.60;96.20;;;;;;5059103;28;20093;-66
2021/01/20 11:57:19;;;;;;;5.90;3.28;;;14.70;96.50;;;;;;5092082;28;20040;-66
2021/01/20 11:59:47;;;;;;;6.40;3.78;;;14.70;96.50;;;;;;5091681;28;20052;-64
2021/01/20 12:02:14;;;;;;;11.85;3.58;;;14.60;96.70;;;;;;5092756;28;20098;-65
2021/01/20 12:04:43;;;;;;;7.00;3.35;;;14.60;96.80;;;;;;5091271;28;20458;-65
2021/01/20 12:07:10;;;;;;;9.77;4.78;;;14.60;96.80;;;;;;5075027;28;20052;-65
2021/01/20 12:09:37;;;;;;;8.40;4.50;;;14.70;96.90;;;;;;5092720;28;20145;-66
2021/01/20 12:12:05;;;;;;;4.22;2.35;;;14.70;96.90;;;;;;5091072;28;20109;-63
2021/01/20 12:14:37;;;;;;;7.25;3.42;;;14.70;97.00;;;;;;5092314;28;20507;-66
2021/01/20 12:17:04;;;;;;;6.35;3.20;;;14.80;97.40;;;;;;5092725;28;20048;-65
2021/01/20 12:19:32;;;;;;;6.63;4.35;;;14.80;97.50;;;;;;5091479;28;20047;-65
2021/01/20 12:22:01;;;;;;;11.15;3.95;;;14.80;97.40;;;;;;5091242;28;20056;-64
2021/01/20 12:24:28;;;;;;;7.50;4.00;;;14.80;97.20;;;;;;5092205;28;20051;-64
2021/01/20 12:26:55;;;;;;;9.80;3.83;;;14.80;97.40;;;;;;5091395;28;20058;-65
2021/01/20 12:29:23;;;;;;;8.27;3.47;;;14.80;97.00;;;;;;5095263;28;20074;-65
2021/01/20 12:31:50;;;;;;;5.95;3.70;;;14.80;97.40;;;;;;5096169;28;20048;-64
2021/01/20 12:34:18;;;;;;;10.45;4.93;;;14.80;97.20;;;;;;5095729;28;20125;-66
2021/01/20 12:36:46;;;;;;;7.90;3.00;;;14.60;97.00;;;;;;5096315;28;20052;-65
2021/01/20 12:39:14;;;;;;;5.13;2.88;;;14.60;96.80;;;;;;5096065;28;20056;-66
2021/01/20 12:41:42;;;;;;;12.75;6.68;;;14.60;96.70;;;;;;5096627;28;20048;-65
2021/01/20 12:44:10;;;;;;;20.88;8.63;;;14.60;96.80;;;;;;5095886;28;20488;-64
2021/01/20 12:46:40;;;;;;;9.02;5.30;;;14.70;96.80;;;;;;5095888;28;20516;-65
2021/01/20 12:49:08;;;;;;;8.85;5.72;;;14.80;96.40;;;;;;5096116;28;20051;-64
2021/01/20 12:51:38;;;;;;;10.05;4.90;;;14.90;95.30;;;;;;5096372;28;20044;-65
2021/01/20 12:54:05;;;;;;;7.88;4.47;;;15.00;94.90;;;;;;5094378;28;20040;-64
2021/01/20 12:56:38;;;;;;;5.65;4.15;;;14.90;94.20;;;;;;5095980;28;20144;-63
2021/01/20 12:59:07;;;;;;;10.70;5.32;;;14.90;94.20;;;;;;5094960;28;20094;-65
2021/01/20 13:01:34;;;;;;;8.48;4.50;;;14.90;93.90;;;;;;5095576;28;20048;-65
2021/01/20 13:04:02;;;;;;;6.93;2.47;;;14.90;94.10;;;;;;5095980;28;20542;-68
2021/01/20 13:06:29;;;;;;;5.20;1.95;;;14.90;94.30;;;;;;5077893;28;20078;-66
2021/01/20 13:08:57;;;;;;;7.47;3.67;;;14.90;94.30;;;;;;5094436;28;20419;-66
2021/01/20 13:11:24;;;;;;;11.40;4.47;;;14.90;94.60;;;;;;5078025;28;20561;-65
2021/01/20 13:13:51;;;;;;;11.30;6.38;;;14.90;94.60;;;;;;5077679;28;20052;-65